sensor_id;sensor_type;location;lat;lon;timestamp;P1;durP1;ratioP1;P2;durP2;ratioP2
47860;SDS011;33620;52.340;5.984;2023-06-24T00:02:23;16.63;;;9.70;;
47860;SDS011;33620;52.340;5.984;2023-06-24T00:04:49;16.85;;;9.60;;
47860;SDS011;33620;52.340;5.984;2023-06-24T00:07:15;18.17;;;10.30;;
47860;SDS011;33620;52.340;5.984;2023-06-24T00:09:41;20.67;;;10.20;;
47860;SDS011;33620;52.340;5.984;2023-06-24T00:12:06;15.07;;;9.52;;
47860;SDS011;33620;52.340;5.984;2023-06-24T00:14:32;15.38;;;9.57;;
47860;SDS011;33620;52.340;5.984;2023-06-24T00:16:57;16.30;;;9.57;;
47860;SDS011;33620;52.340;5.984;2023-06-24T00:19:24;12.70;;;8.27;;
47860;SDS011;33620;52.340;5.984;2023-06-24T00:21:51;17.23;;;9.65;;
47860;SDS011;33620;52.340;5.984;2023-06-24T00:24:21;17.02;;;9.00;;
47860;SDS011;33620;52.340;5.984;2023-06-24T00:26:54;14.35;;;9.20;;
47860;SDS011;33620;52.340;5.984;2023-06-24T00:29:20;16.55;;;9.88;;
47860;SDS011;33620;52.340;5.984;2023-06-24T00:31:45;15.70;;;9.93;;
47860;SDS011;33620;52.340;5.984;2023-06-24T00:34:10;16.67;;;9.88;;
47860;SDS011;33620;52.340;5.984;2023-06-24T00:36:36;17.67;;;9.70;;
47860;SDS011;33620;52.340;5.984;2023-06-24T00:39:02;18.10;;;9.48;;
47860;SDS011;33620;52.340;5.984;2023-06-24T00:41:29;17.38;;;9.40;;
47860;SDS011;33620;52.340;5.984;2023-06-24T00:43:55;17.83;;;10.27;;
47860;SDS011;33620;52.340;5.984;2023-06-24T00:46:22;18.02;;;9.88;;
47860;SDS011;33620;52.340;5.984;2023-06-24T00:48:50;15.82;;;9.82;;
47860;SDS011;33620;52.340;5.984;2023-06-24T00:51:19;18.67;;;9.95;;
47860;SDS011;33620;52.340;5.984;2023-06-24T00:53:46;14.65;;;8.60;;
47860;SDS011;33620;52.340;5.984;2023-06-24T00:56:12;14.00;;;8.73;;
47860;SDS011;33620;52.340;5.984;2023-06-24T00:58:41;17.02;;;9.30;;
47860;SDS011;33620;52.340;5.984;2023-06-24T01:01:08;16.08;;;8.73;;
47860;SDS011;33620;52.340;5.984;2023-06-24T01:03:34;18.65;;;9.13;;
47860;SDS011;33620;52.340;5.984;2023-06-24T01:06:02;17.70;;;9.25;;
47860;SDS011;33620;52.340;5.984;2023-06-24T01:08:27;15.05;;;8.85;;
47860;SDS011;33620;52.340;5.984;2023-06-24T01:10:53;15.82;;;8.93;;
47860;SDS011;33620;52.340;5.984;2023-06-24T01:13:19;14.40;;;8.35;;
47860;SDS011;33620;52.340;5.984;2023-06-24T01:15:45;14.90;;;8.02;;
47860;SDS011;33620;52.340;5.984;2023-06-24T01:26:06;19.58;;;10.20;;
47860;SDS011;33620;52.340;5.984;2023-06-24T01:32:08;17.27;;;9.65;;
47860;SDS011;33620;52.340;5.984;2023-06-24T01:35:11;16.85;;;9.55;;
47860;SDS011;33620;52.340;5.984;2023-06-24T01:37:42;15.75;;;9.13;;
47860;SDS011;33620;52.340;5.984;2023-06-24T01:40:25;15.68;;;9.70;;
47860;SDS011;33620;52.340;5.984;2023-06-24T01:42:51;16.40;;;9.60;;
47860;SDS011;33620;52.340;5.984;2023-06-24T01:45:21;15.48;;;9.32;;
47860;SDS011;33620;52.340;5.984;2023-06-24T01:47:51;17.42;;;10.55;;
47860;SDS011;33620;52.340;5.984;2023-06-24T01:50:26;17.10;;;9.82;;
47860;SDS011;33620;52.340;5.984;2023-06-24T01:52:52;18.25;;;10.07;;
47860;SDS011;33620;52.340;5.984;2023-06-24T01:55:20;20.10;;;10.48;;
47860;SDS011;33620;52.340;5.984;2023-06-24T01:57:49;14.63;;;8.98;;
47860;SDS011;33620;52.340;5.984;2023-06-24T02:00:15;17.00;;;10.32;;
47860;SDS011;33620;52.340;5.984;2023-06-24T02:02:42;16.70;;;10.18;;
47860;SDS011;33620;52.340;5.984;2023-06-24T02:05:09;16.63;;;9.57;;
47860;SDS011;33620;52.340;5.984;2023-06-24T02:07:36;16.40;;;9.93;;
47860;SDS011;33620;52.340;5.984;2023-06-24T02:10:03;17.50;;;10.52;;
47860;SDS011;33620;52.340;5.984;2023-06-24T02:12:31;15.68;;;9.73;;
47860;SDS011;33620;52.340;5.984;2023-06-24T02:14:57;18.98;;;10.15;;
47860;SDS011;33620;52.340;5.984;2023-06-24T02:17:24;14.35;;;9.13;;
47860;SDS011;33620;52.340;5.984;2023-06-24T02:19:51;15.90;;;9.48;;
47860;SDS011;33620;52.340;5.984;2023-06-24T02:22:18;15.77;;;9.32;;
47860;SDS011;33620;52.340;5.984;2023-06-24T02:24:44;16.65;;;9.70;;
47860;SDS011;33620;52.340;5.984;2023-06-24T02:27:11;19.08;;;10.65;;
47860;SDS011;33620;52.340;5.984;2023-06-24T02:29:37;16.42;;;9.48;;
47860;SDS011;33620;52.340;5.984;2023-06-24T02:32:05;14.65;;;8.80;;
47860;SDS011;33620;52.340;5.984;2023-06-24T02:34:31;16.40;;;9.07;;
47860;SDS011;33620;52.340;5.984;2023-06-24T02:36:56;15.27;;;8.48;;
47860;SDS011;33620;52.340;5.984;2023-06-24T02:39:22;16.60;;;9.23;;
47860;SDS011;33620;52.340;5.984;2023-06-24T02:41:48;13.93;;;8.63;;
47860;SDS011;33620;52.340;5.984;2023-06-24T02:44:14;16.90;;;8.85;;
47860;SDS011;33620;52.340;5.984;2023-06-24T02:46:40;17.58;;;9.43;;
47860;SDS011;33620;52.340;5.984;2023-06-24T02:49:07;14.65;;;8.88;;
47860;SDS011;33620;52.340;5.984;2023-06-24T02:51:35;14.68;;;8.23;;
47860;SDS011;33620;52.340;5.984;2023-06-24T02:54:03;14.77;;;8.48;;
47860;SDS011;33620;52.340;5.984;2023-06-24T02:56:29;15.13;;;8.02;;
47860;SDS011;33620;52.340;5.984;2023-06-24T02:58:55;14.95;;;8.27;;
47860;SDS011;33620;52.340;5.984;2023-06-24T03:01:21;13.98;;;8.15;;
47860;SDS011;33620;52.340;5.984;2023-06-24T03:03:51;13.32;;;8.15;;
47860;SDS011;33620;52.340;5.984;2023-06-24T03:06:18;15.93;;;8.95;;
47860;SDS011;33620;52.340;5.984;2023-06-24T03:08:44;13.10;;;8.23;;
47860;SDS011;33620;52.340;5.984;2023-06-24T03:11:13;12.27;;;8.00;;
47860;SDS011;33620;52.340;5.984;2023-06-24T03:13:39;15.40;;;8.27;;
47860;SDS011;33620;52.340;5.984;2023-06-24T03:16:05;16.55;;;8.98;;
47860;SDS011;33620;52.340;5.984;2023-06-24T03:18:30;16.40;;;9.18;;
47860;SDS011;33620;52.340;5.984;2023-06-24T03:20:56;15.02;;;8.95;;
47860;SDS011;33620;52.340;5.984;2023-06-24T03:23:22;14.88;;;8.98;;
47860;SDS011;33620;52.340;5.984;2023-06-24T03:25:47;16.83;;;9.45;;
47860;SDS011;33620;52.340;5.984;2023-06-24T03:28:12;16.38;;;9.23;;
47860;SDS011;33620;52.340;5.984;2023-06-24T03:30:38;13.88;;;8.65;;
47860;SDS011;33620;52.340;5.984;2023-06-24T03:33:04;17.63;;;9.25;;
47860;SDS011;33620;52.340;5.984;2023-06-24T03:35:31;15.85;;;9.30;;
47860;SDS011;33620;52.340;5.984;2023-06-24T03:37:57;16.08;;;9.35;;
47860;SDS011;33620;52.340;5.984;2023-06-24T03:40:23;15.23;;;9.27;;
47860;SDS011;33620;52.340;5.984;2023-06-24T03:42:48;17.17;;;9.93;;
47860;SDS011;33620;52.340;5.984;2023-06-24T03:45:14;17.30;;;10.00;;
47860;SDS011;33620;52.340;5.984;2023-06-24T03:47:39;18.02;;;10.13;;
47860;SDS011;33620;52.340;5.984;2023-06-24T03:50:05;16.55;;;10.00;;
47860;SDS011;33620;52.340;5.984;2023-06-24T03:52:30;19.13;;;10.80;;
47860;SDS011;33620;52.340;5.984;2023-06-24T03:54:56;19.08;;;10.40;;
47860;SDS011;33620;52.340;5.984;2023-06-24T03:57:21;17.02;;;9.80;;
47860;SDS011;33620;52.340;5.984;2023-06-24T03:59:47;20.20;;;10.20;;
47860;SDS011;33620;52.340;5.984;2023-06-24T04:02:13;15.93;;;9.55;;
47860;SDS011;33620;52.340;5.984;2023-06-24T04:04:39;16.83;;;9.65;;
47860;SDS011;33620;52.340;5.984;2023-06-24T04:07:04;16.90;;;9.68;;
47860;SDS011;33620;52.340;5.984;2023-06-24T04:09:32;16.52;;;9.68;;
47860;SDS011;33620;52.340;5.984;2023-06-24T04:11:58;15.18;;;9.18;;
47860;SDS011;33620;52.340;5.984;2023-06-24T04:14:24;16.08;;;9.30;;
47860;SDS011;33620;52.340;5.984;2023-06-24T04:16:49;17.88;;;9.45;;
47860;SDS011;33620;52.340;5.984;2023-06-24T04:19:15;17.98;;;9.95;;
47860;SDS011;33620;52.340;5.984;2023-06-24T04:21:41;15.50;;;9.10;;
47860;SDS011;33620;52.340;5.984;2023-06-24T04:24:07;14.45;;;8.25;;
47860;SDS011;33620;52.340;5.984;2023-06-24T04:26:32;15.18;;;8.55;;
47860;SDS011;33620;52.340;5.984;2023-06-24T04:28:58;17.88;;;9.63;;
47860;SDS011;33620;52.340;5.984;2023-06-24T04:31:24;17.70;;;9.80;;
47860;SDS011;33620;52.340;5.984;2023-06-24T04:33:50;16.13;;;9.60;;
47860;SDS011;33620;52.340;5.984;2023-06-24T04:36:15;17.65;;;10.13;;
47860;SDS011;33620;52.340;5.984;2023-06-24T04:38:41;17.60;;;9.65;;
47860;SDS011;33620;52.340;5.984;2023-06-24T04:41:06;18.33;;;10.93;;
47860;SDS011;33620;52.340;5.984;2023-06-24T04:43:32;16.67;;;10.02;;
47860;SDS011;33620;52.340;5.984;2023-06-24T04:45:57;16.83;;;10.18;;
47860;SDS011;33620;52.340;5.984;2023-06-24T04:48:23;18.70;;;9.80;;
47860;SDS011;33620;52.340;5.984;2023-06-24T04:50:49;18.70;;;10.32;;
47860;SDS011;33620;52.340;5.984;2023-06-24T04:53:14;18.83;;;10.13;;
47860;SDS011;33620;52.340;5.984;2023-06-24T04:55:40;18.80;;;10.45;;
47860;SDS011;33620;52.340;5.984;2023-06-24T04:58:05;18.92;;;10.98;;
47860;SDS011;33620;52.340;5.984;2023-06-24T05:00:31;16.73;;;10.10;;
47860;SDS011;33620;52.340;5.984;2023-06-24T05:02:57;22.20;;;10.98;;
47860;SDS011;33620;52.340;5.984;2023-06-24T05:05:22;18.95;;;11.73;;
47860;SDS011;33620;52.340;5.984;2023-06-24T05:07:48;18.52;;;10.30;;
47860;SDS011;33620;52.340;5.984;2023-06-24T05:10:13;20.15;;;11.63;;
47860;SDS011;33620;52.340;5.984;2023-06-24T05:12:39;20.88;;;12.05;;
47860;SDS011;33620;52.340;5.984;2023-06-24T05:15:04;21.33;;;12.70;;
47860;SDS011;33620;52.340;5.984;2023-06-24T05:17:30;21.25;;;11.95;;
47860;SDS011;33620;52.340;5.984;2023-06-24T05:19:55;20.23;;;11.95;;
47860;SDS011;33620;52.340;5.984;2023-06-24T05:22:21;20.88;;;12.90;;
47860;SDS011;33620;52.340;5.984;2023-06-24T05:24:46;20.73;;;12.60;;
47860;SDS011;33620;52.340;5.984;2023-06-24T05:27:12;21.92;;;13.13;;
47860;SDS011;33620;52.340;5.984;2023-06-24T05:29:37;24.65;;;13.98;;
47860;SDS011;33620;52.340;5.984;2023-06-24T05:32:03;23.30;;;14.23;;
47860;SDS011;33620;52.340;5.984;2023-06-24T05:34:29;22.95;;;14.77;;
47860;SDS011;33620;52.340;5.984;2023-06-24T05:36:55;21.98;;;13.60;;
47860;SDS011;33620;52.340;5.984;2023-06-24T05:39:21;24.20;;;14.43;;
47860;SDS011;33620;52.340;5.984;2023-06-24T05:41:46;25.50;;;14.63;;
47860;SDS011;33620;52.340;5.984;2023-06-24T05:44:13;24.77;;;14.38;;
47860;SDS011;33620;52.340;5.984;2023-06-24T05:46:39;25.25;;;15.48;;
47860;SDS011;33620;52.340;5.984;2023-06-24T05:49:04;27.83;;;14.27;;
47860;SDS011;33620;52.340;5.984;2023-06-24T05:51:30;26.33;;;14.93;;
47860;SDS011;33620;52.340;5.984;2023-06-24T05:53:55;27.33;;;14.70;;
47860;SDS011;33620;52.340;5.984;2023-06-24T05:56:21;26.65;;;14.93;;
47860;SDS011;33620;52.340;5.984;2023-06-24T05:58:47;24.23;;;14.88;;
47860;SDS011;33620;52.340;5.984;2023-06-24T06:01:15;26.02;;;14.75;;
47860;SDS011;33620;52.340;5.984;2023-06-24T06:03:41;24.83;;;14.60;;
47860;SDS011;33620;52.340;5.984;2023-06-24T06:06:06;23.63;;;14.10;;
47860;SDS011;33620;52.340;5.984;2023-06-24T06:08:32;27.15;;;14.82;;
47860;SDS011;33620;52.340;5.984;2023-06-24T06:10:58;25.63;;;14.32;;
47860;SDS011;33620;52.340;5.984;2023-06-24T06:13:24;24.20;;;14.55;;
47860;SDS011;33620;52.340;5.984;2023-06-24T06:15:49;22.88;;;14.13;;
47860;SDS011;33620;52.340;5.984;2023-06-24T06:18:15;25.10;;;14.60;;
47860;SDS011;33620;52.340;5.984;2023-06-24T06:20:40;22.55;;;13.13;;
47860;SDS011;33620;52.340;5.984;2023-06-24T06:23:05;25.98;;;14.98;;
47860;SDS011;33620;52.340;5.984;2023-06-24T06:25:31;25.35;;;14.65;;
47860;SDS011;33620;52.340;5.984;2023-06-24T06:27:57;24.70;;;15.00;;
47860;SDS011;33620;52.340;5.984;2023-06-24T06:30:23;25.15;;;14.82;;
47860;SDS011;33620;52.340;5.984;2023-06-24T06:32:48;23.23;;;12.93;;
47860;SDS011;33620;52.340;5.984;2023-06-24T06:35:14;22.58;;;13.48;;
47860;SDS011;33620;52.340;5.984;2023-06-24T06:37:39;24.80;;;13.40;;
47860;SDS011;33620;52.340;5.984;2023-06-24T06:40:05;23.52;;;13.90;;
47860;SDS011;33620;52.340;5.984;2023-06-24T06:42:30;22.50;;;12.15;;
47860;SDS011;33620;52.340;5.984;2023-06-24T06:44:56;24.33;;;11.57;;
47860;SDS011;33620;52.340;5.984;2023-06-24T06:47:22;21.27;;;12.90;;
47860;SDS011;33620;52.340;5.984;2023-06-24T06:49:47;23.63;;;12.38;;
47860;SDS011;33620;52.340;5.984;2023-06-24T06:52:13;26.88;;;12.40;;
47860;SDS011;33620;52.340;5.984;2023-06-24T06:54:38;22.60;;;12.23;;
47860;SDS011;33620;52.340;5.984;2023-06-24T06:57:04;19.90;;;10.60;;
47860;SDS011;33620;52.340;5.984;2023-06-24T06:59:33;21.02;;;10.43;;
47860;SDS011;33620;52.340;5.984;2023-06-24T07:01:58;17.20;;;8.85;;
47860;SDS011;33620;52.340;5.984;2023-06-24T07:04:24;14.35;;;7.70;;
47860;SDS011;33620;52.340;5.984;2023-06-24T07:06:49;14.45;;;7.93;;
47860;SDS011;33620;52.340;5.984;2023-06-24T07:09:15;16.38;;;6.63;;
47860;SDS011;33620;52.340;5.984;2023-06-24T07:11:41;14.05;;;6.95;;
47860;SDS011;33620;52.340;5.984;2023-06-24T07:14:07;12.02;;;6.38;;
47860;SDS011;33620;52.340;5.984;2023-06-24T07:16:32;10.55;;;5.80;;
47860;SDS011;33620;52.340;5.984;2023-06-24T07:18:58;9.60;;;5.30;;
47860;SDS011;33620;52.340;5.984;2023-06-24T07:21:23;8.23;;;3.97;;
47860;SDS011;33620;52.340;5.984;2023-06-24T07:23:49;9.32;;;4.05;;
47860;SDS011;33620;52.340;5.984;2023-06-24T07:26:14;5.95;;;3.47;;
47860;SDS011;33620;52.340;5.984;2023-06-24T07:28:39;5.57;;;3.45;;
47860;SDS011;33620;52.340;5.984;2023-06-24T07:31:05;7.85;;;3.63;;
47860;SDS011;33620;52.340;5.984;2023-06-24T07:33:30;5.93;;;3.35;;
47860;SDS011;33620;52.340;5.984;2023-06-24T07:35:56;6.85;;;3.45;;
47860;SDS011;33620;52.340;5.984;2023-06-24T07:38:22;6.93;;;4.05;;
47860;SDS011;33620;52.340;5.984;2023-06-24T07:40:47;5.05;;;3.25;;
47860;SDS011;33620;52.340;5.984;2023-06-24T07:43:13;6.88;;;3.72;;
47860;SDS011;33620;52.340;5.984;2023-06-24T07:45:38;6.43;;;3.15;;
47860;SDS011;33620;52.340;5.984;2023-06-24T07:48:04;5.03;;;3.38;;
47860;SDS011;33620;52.340;5.984;2023-06-24T07:50:30;5.97;;;3.33;;
47860;SDS011;33620;52.340;5.984;2023-06-24T07:52:56;7.40;;;3.55;;
47860;SDS011;33620;52.340;5.984;2023-06-24T07:55:22;5.60;;;3.20;;
47860;SDS011;33620;52.340;5.984;2023-06-24T07:57:47;7.85;;;3.60;;
47860;SDS011;33620;52.340;5.984;2023-06-24T08:00:13;7.13;;;3.38;;
47860;SDS011;33620;52.340;5.984;2023-06-24T08:02:40;7.13;;;3.30;;
47860;SDS011;33620;52.340;5.984;2023-06-24T08:05:06;7.05;;;3.92;;
47860;SDS011;33620;52.340;5.984;2023-06-24T08:07:32;6.10;;;3.47;;
47860;SDS011;33620;52.340;5.984;2023-06-24T08:09:57;4.82;;;3.45;;
47860;SDS011;33620;52.340;5.984;2023-06-24T08:12:23;5.82;;;3.17;;
47860;SDS011;33620;52.340;5.984;2023-06-24T08:14:48;6.80;;;3.28;;
47860;SDS011;33620;52.340;5.984;2023-06-24T08:17:13;5.65;;;3.38;;
47860;SDS011;33620;52.340;5.984;2023-06-24T08:19:39;6.50;;;3.42;;
47860;SDS011;33620;52.340;5.984;2023-06-24T08:22:04;6.80;;;3.47;;
47860;SDS011;33620;52.340;5.984;2023-06-24T08:24:30;9.57;;;3.80;;
47860;SDS011;33620;52.340;5.984;2023-06-24T08:26:56;6.68;;;3.20;;
47860;SDS011;33620;52.340;5.984;2023-06-24T08:29:21;5.95;;;3.33;;
47860;SDS011;33620;52.340;5.984;2023-06-24T08:31:47;6.88;;;3.38;;
47860;SDS011;33620;52.340;5.984;2023-06-24T08:34:12;5.97;;;3.35;;
47860;SDS011;33620;52.340;5.984;2023-06-24T08:36:38;7.47;;;3.60;;
47860;SDS011;33620;52.340;5.984;2023-06-24T08:39:03;7.75;;;3.92;;
47860;SDS011;33620;52.340;5.984;2023-06-24T08:41:28;7.30;;;3.45;;
47860;SDS011;33620;52.340;5.984;2023-06-24T08:43:54;7.22;;;3.97;;
47860;SDS011;33620;52.340;5.984;2023-06-24T08:46:20;8.70;;;3.78;;
47860;SDS011;33620;52.340;5.984;2023-06-24T08:48:47;7.90;;;3.55;;
47860;SDS011;33620;52.340;5.984;2023-06-24T08:51:14;10.02;;;3.55;;
47860;SDS011;33620;52.340;5.984;2023-06-24T08:53:43;6.80;;;3.75;;
47860;SDS011;33620;52.340;5.984;2023-06-24T08:56:09;6.90;;;3.80;;
47860;SDS011;33620;52.340;5.984;2023-06-24T08:58:36;8.35;;;4.40;;
47860;SDS011;33620;52.340;5.984;2023-06-24T09:01:01;7.90;;;4.55;;
47860;SDS011;33620;52.340;5.984;2023-06-24T09:03:27;8.95;;;4.53;;
47860;SDS011;33620;52.340;5.984;2023-06-24T09:05:53;8.15;;;4.15;;
47860;SDS011;33620;52.340;5.984;2023-06-24T09:08:18;6.55;;;3.38;;
47860;SDS011;33620;52.340;5.984;2023-06-24T09:10:45;9.55;;;4.45;;
47860;SDS011;33620;52.340;5.984;2023-06-24T09:13:20;7.97;;;4.70;;
47860;SDS011;33620;52.340;5.984;2023-06-24T09:15:48;10.57;;;4.05;;
47860;SDS011;33620;52.340;5.984;2023-06-24T09:18:13;6.70;;;3.88;;
47860;SDS011;33620;52.340;5.984;2023-06-24T09:20:42;7.97;;;3.85;;
47860;SDS011;33620;52.340;5.984;2023-06-24T09:23:10;5.93;;;3.47;;
47860;SDS011;33620;52.340;5.984;2023-06-24T09:25:35;7.75;;;4.32;;
47860;SDS011;33620;52.340;5.984;2023-06-24T09:28:01;8.90;;;4.63;;
47860;SDS011;33620;52.340;5.984;2023-06-24T09:30:27;7.82;;;4.15;;
47860;SDS011;33620;52.340;5.984;2023-06-24T09:32:54;8.57;;;4.45;;
47860;SDS011;33620;52.340;5.984;2023-06-24T09:35:23;10.60;;;4.60;;
47860;SDS011;33620;52.340;5.984;2023-06-24T09:37:50;8.63;;;4.40;;
47860;SDS011;33620;52.340;5.984;2023-06-24T09:40:16;10.90;;;5.00;;
47860;SDS011;33620;52.340;5.984;2023-06-24T09:43:16;9.73;;;4.85;;
47860;SDS011;33620;52.340;5.984;2023-06-24T09:45:34;8.30;;;4.63;;
47860;SDS011;33620;52.340;5.984;2023-06-24T09:47:59;9.20;;;4.85;;
47860;SDS011;33620;52.340;5.984;2023-06-24T09:50:25;9.00;;;4.90;;
47860;SDS011;33620;52.340;5.984;2023-06-24T09:52:50;9.35;;;5.07;;
47860;SDS011;33620;52.340;5.984;2023-06-24T09:55:18;9.95;;;4.68;;
47860;SDS011;33620;52.340;5.984;2023-06-24T09:57:47;12.23;;;5.22;;
47860;SDS011;33620;52.340;5.984;2023-06-24T10:00:16;10.38;;;5.10;;
47860;SDS011;33620;52.340;5.984;2023-06-24T10:02:45;9.70;;;4.57;;
47860;SDS011;33620;52.340;5.984;2023-06-24T10:05:14;8.75;;;4.47;;
47860;SDS011;33620;52.340;5.984;2023-06-24T10:07:40;11.93;;;5.10;;
47860;SDS011;33620;52.340;5.984;2023-06-24T10:10:06;10.18;;;4.60;;
47860;SDS011;33620;52.340;5.984;2023-06-24T10:12:33;9.55;;;5.40;;
47860;SDS011;33620;52.340;5.984;2023-06-24T10:15:00;7.95;;;4.63;;
47860;SDS011;33620;52.340;5.984;2023-06-24T10:17:26;10.85;;;4.60;;
47860;SDS011;33620;52.340;5.984;2023-06-24T10:19:52;8.52;;;4.25;;
47860;SDS011;33620;52.340;5.984;2023-06-24T10:22:23;7.90;;;4.72;;
47860;SDS011;33620;52.340;5.984;2023-06-24T10:24:50;11.27;;;4.85;;
47860;SDS011;33620;52.340;5.984;2023-06-24T10:27:18;7.85;;;4.50;;
47860;SDS011;33620;52.340;5.984;2023-06-24T10:29:51;8.85;;;4.65;;
47860;SDS011;33620;52.340;5.984;2023-06-24T10:32:18;7.97;;;4.45;;
47860;SDS011;33620;52.340;5.984;2023-06-24T10:34:44;9.95;;;4.55;;
47860;SDS011;33620;52.340;5.984;2023-06-24T10:37:22;8.65;;;5.00;;
47860;SDS011;33620;52.340;5.984;2023-06-24T10:39:53;8.75;;;4.75;;
47860;SDS011;33620;52.340;5.984;2023-06-24T10:42:25;9.82;;;4.85;;
47860;SDS011;33620;52.340;5.984;2023-06-24T10:44:55;7.13;;;4.00;;
47860;SDS011;33620;52.340;5.984;2023-06-24T10:47:39;9.18;;;4.25;;
47860;SDS011;33620;52.340;5.984;2023-06-24T10:50:07;7.95;;;4.05;;
47860;SDS011;33620;52.340;5.984;2023-06-24T10:52:37;7.05;;;4.20;;
47860;SDS011;33620;52.340;5.984;2023-06-24T10:55:03;7.72;;;4.18;;
47860;SDS011;33620;52.340;5.984;2023-06-24T10:57:29;7.35;;;4.00;;
47860;SDS011;33620;52.340;5.984;2023-06-24T10:59:56;6.50;;;3.92;;
47860;SDS011;33620;52.340;5.984;2023-06-24T11:02:23;7.10;;;3.92;;
47860;SDS011;33620;52.340;5.984;2023-06-24T11:04:51;7.18;;;4.03;;
47860;SDS011;33620;52.340;5.984;2023-06-24T11:07:18;7.10;;;3.92;;
47860;SDS011;33620;52.340;5.984;2023-06-24T11:09:52;5.95;;;3.50;;
47860;SDS011;33620;52.340;5.984;2023-06-24T11:12:29;6.85;;;3.20;;
47860;SDS011;33620;52.340;5.984;2023-06-24T11:15:03;7.43;;;3.60;;
47860;SDS011;33620;52.340;5.984;2023-06-24T11:17:29;8.05;;;4.30;;
47860;SDS011;33620;52.340;5.984;2023-06-24T11:19:55;8.90;;;4.60;;
47860;SDS011;33620;52.340;5.984;2023-06-24T11:22:22;11.57;;;5.30;;
47860;SDS011;33620;52.340;5.984;2023-06-24T11:24:48;9.00;;;4.85;;
47860;SDS011;33620;52.340;5.984;2023-06-24T11:27:14;10.43;;;4.82;;
47860;SDS011;33620;52.340;5.984;2023-06-24T11:29:40;9.40;;;4.45;;
47860;SDS011;33620;52.340;5.984;2023-06-24T11:32:09;8.25;;;4.50;;
47860;SDS011;33620;52.340;5.984;2023-06-24T11:34:37;10.38;;;4.97;;
47860;SDS011;33620;52.340;5.984;2023-06-24T11:37:13;9.13;;;4.78;;
47860;SDS011;33620;52.340;5.984;2023-06-24T11:39:40;9.15;;;4.43;;
47860;SDS011;33620;52.340;5.984;2023-06-24T11:42:06;6.07;;;4.10;;
47860;SDS011;33620;52.340;5.984;2023-06-24T11:44:35;10.60;;;4.20;;
47860;SDS011;33620;52.340;5.984;2023-06-24T11:47:06;7.07;;;4.22;;
47860;SDS011;33620;52.340;5.984;2023-06-24T11:49:32;9.95;;;4.97;;
47860;SDS011;33620;52.340;5.984;2023-06-24T11:52:12;7.75;;;5.05;;
47860;SDS011;33620;52.340;5.984;2023-06-24T11:54:40;7.88;;;4.70;;
47860;SDS011;33620;52.340;5.984;2023-06-24T11:57:06;7.03;;;4.40;;
47860;SDS011;33620;52.340;5.984;2023-06-24T11:59:31;9.75;;;4.63;;
47860;SDS011;33620;52.340;5.984;2023-06-24T12:01:58;10.23;;;4.63;;
47860;SDS011;33620;52.340;5.984;2023-06-24T12:04:28;7.32;;;4.18;;
47860;SDS011;33620;52.340;5.984;2023-06-24T12:06:54;8.50;;;4.45;;
47860;SDS011;33620;52.340;5.984;2023-06-24T12:09:20;9.70;;;4.63;;
47860;SDS011;33620;52.340;5.984;2023-06-24T12:11:46;7.05;;;4.57;;
47860;SDS011;33620;52.340;5.984;2023-06-24T12:14:11;9.80;;;4.93;;
47860;SDS011;33620;52.340;5.984;2023-06-24T12:16:37;7.75;;;4.38;;
47860;SDS011;33620;52.340;5.984;2023-06-24T12:19:03;8.35;;;4.57;;
47860;SDS011;33620;52.340;5.984;2023-06-24T12:21:28;10.15;;;5.05;;
47860;SDS011;33620;52.340;5.984;2023-06-24T12:23:54;10.80;;;4.97;;
47860;SDS011;33620;52.340;5.984;2023-06-24T12:26:19;6.78;;;4.90;;
47860;SDS011;33620;52.340;5.984;2023-06-24T12:28:45;10.70;;;5.25;;
47860;SDS011;33620;52.340;5.984;2023-06-24T12:31:11;8.73;;;5.13;;
47860;SDS011;33620;52.340;5.984;2023-06-24T12:33:36;8.65;;;4.95;;
47860;SDS011;33620;52.340;5.984;2023-06-24T12:36:02;10.27;;;4.97;;
47860;SDS011;33620;52.340;5.984;2023-06-24T12:38:27;8.93;;;5.18;;
47860;SDS011;33620;52.340;5.984;2023-06-24T12:40:53;7.82;;;4.88;;
47860;SDS011;33620;52.340;5.984;2023-06-24T12:43:18;7.18;;;4.47;;
47860;SDS011;33620;52.340;5.984;2023-06-24T12:45:43;8.63;;;4.75;;
47860;SDS011;33620;52.340;5.984;2023-06-24T12:48:09;9.88;;;5.38;;
47860;SDS011;33620;52.340;5.984;2023-06-24T12:50:35;10.70;;;5.03;;
47860;SDS011;33620;52.340;5.984;2023-06-24T12:53:01;8.75;;;4.55;;
47860;SDS011;33620;52.340;5.984;2023-06-24T12:55:28;10.63;;;5.22;;
47860;SDS011;33620;52.340;5.984;2023-06-24T12:57:54;10.80;;;5.45;;
47860;SDS011;33620;52.340;5.984;2023-06-24T13:00:20;8.98;;;5.13;;
47860;SDS011;33620;52.340;5.984;2023-06-24T13:02:46;9.13;;;5.15;;
47860;SDS011;33620;52.340;5.984;2023-06-24T13:05:11;9.23;;;4.47;;
47860;SDS011;33620;52.340;5.984;2023-06-24T13:07:37;9.77;;;5.07;;
47860;SDS011;33620;52.340;5.984;2023-06-24T13:10:02;9.77;;;5.10;;
47860;SDS011;33620;52.340;5.984;2023-06-24T13:12:30;9.25;;;4.45;;
47860;SDS011;33620;52.340;5.984;2023-06-24T13:14:56;8.13;;;4.90;;
47860;SDS011;33620;52.340;5.984;2023-06-24T13:17:22;10.10;;;4.70;;
47860;SDS011;33620;52.340;5.984;2023-06-24T13:19:47;8.10;;;4.63;;
47860;SDS011;33620;52.340;5.984;2023-06-24T13:22:12;10.30;;;5.65;;
47860;SDS011;33620;52.340;5.984;2023-06-24T13:24:38;12.57;;;4.70;;
47860;SDS011;33620;52.340;5.984;2023-06-24T13:27:03;9.02;;;4.50;;
47860;SDS011;33620;52.340;5.984;2023-06-24T13:29:29;10.45;;;5.05;;
47860;SDS011;33620;52.340;5.984;2023-06-24T13:31:54;10.35;;;5.22;;
47860;SDS011;33620;52.340;5.984;2023-06-24T13:34:20;7.88;;;5.45;;
47860;SDS011;33620;52.340;5.984;2023-06-24T13:36:45;9.55;;;5.00;;
47860;SDS011;33620;52.340;5.984;2023-06-24T13:39:12;7.78;;;4.78;;
47860;SDS011;33620;52.340;5.984;2023-06-24T13:41:38;6.88;;;4.38;;
47860;SDS011;33620;52.340;5.984;2023-06-24T13:44:04;10.43;;;5.25;;
47860;SDS011;33620;52.340;5.984;2023-06-24T13:46:29;11.05;;;5.85;;
47860;SDS011;33620;52.340;5.984;2023-06-24T13:48:56;7.90;;;4.88;;
47860;SDS011;33620;52.340;5.984;2023-06-24T13:51:22;10.80;;;5.72;;
47860;SDS011;33620;52.340;5.984;2023-06-24T13:53:48;11.05;;;5.72;;
47860;SDS011;33620;52.340;5.984;2023-06-24T13:56:16;11.23;;;4.50;;
47860;SDS011;33620;52.340;5.984;2023-06-24T13:58:42;8.52;;;5.45;;
47860;SDS011;33620;52.340;5.984;2023-06-24T14:01:07;11.95;;;5.85;;
47860;SDS011;33620;52.340;5.984;2023-06-24T14:03:32;14.68;;;6.82;;
47860;SDS011;33620;52.340;5.984;2023-06-24T14:05:58;15.40;;;6.30;;
47860;SDS011;33620;52.340;5.984;2023-06-24T14:08:26;12.23;;;5.78;;
47860;SDS011;33620;52.340;5.984;2023-06-24T14:10:52;10.55;;;5.25;;
47860;SDS011;33620;52.340;5.984;2023-06-24T14:13:17;9.75;;;5.57;;
47860;SDS011;33620;52.340;5.984;2023-06-24T14:15:43;12.15;;;5.88;;
47860;SDS011;33620;52.340;5.984;2023-06-24T14:18:09;11.23;;;5.45;;
47860;SDS011;33620;52.340;5.984;2023-06-24T14:20:34;11.77;;;5.82;;
47860;SDS011;33620;52.340;5.984;2023-06-24T14:23:00;7.53;;;5.18;;
47860;SDS011;33620;52.340;5.984;2023-06-24T14:25:25;9.38;;;5.05;;
47860;SDS011;33620;52.340;5.984;2023-06-24T14:27:50;9.55;;;5.35;;
47860;SDS011;33620;52.340;5.984;2023-06-24T14:30:16;10.32;;;5.47;;
47860;SDS011;33620;52.340;5.984;2023-06-24T14:32:41;11.05;;;5.40;;
47860;SDS011;33620;52.340;5.984;2023-06-24T14:35:07;9.38;;;5.10;;
47860;SDS011;33620;52.340;5.984;2023-06-24T14:37:33;13.15;;;6.82;;
47860;SDS011;33620;52.340;5.984;2023-06-24T14:39:58;8.70;;;5.05;;
47860;SDS011;33620;52.340;5.984;2023-06-24T14:42:24;8.77;;;4.78;;
47860;SDS011;33620;52.340;5.984;2023-06-24T14:44:49;7.82;;;4.97;;